Airfield :
LOGIN :

Register | Disclaimer

   EN    FR    IT 

 










Legend :    VFR   Marginal VFR   IFR   Intensive IFR   Very Intensive IFR
Visi :
Ceiling :
>= 8 km
>= 3000ft
5 to 8 km
1000 to 3000 ft
1500m to 5 km
500 to 1000 ft
800 to 1500m
200 to 500 ft
< 800m
< 200 ft
Symbols :   Thunderstorms  Fog  Heavy snow  Heavy precipitations  Wind > 20 kt
SIGMETs :     Misc.  Thunderstorms  Icing  Turbulence  Mountain Waves  Volcanic Ashes






- Airport Elevation : 568 ft


UUMO - Ostafyevo International

CURRENT METAR :
  • 090730Z 25008MPS CAVOK 12/M01 Q1016 R26/090060 NOSIG RMK QFE746/0995

EXPIRED METARs :
  • 090700Z 24006MPS 210V270 CAVOK 12/M00 Q1016 R26/090060 NOSIG RMK QFE747/0996
  • 090630Z 23003MPS 200V270 CAVOK 10/01 Q1017 R26/090060 NOSIG RMK QFE747/0996
  • 090600Z 23002MPS 200V270 CAVOK 08/02 Q1017 R26/090060 NOSIG RMK QFE747/0997
  • 090530Z 24002MPS 210V270 CAVOK 06/02 Q1017 R26/090060 NOSIG RMK QFE748/0997
  • 090500Z VRB01MPS CAVOK 05/02 Q1018 R26/090060 NOSIG RMK QFE748/0997

TAF TAF UUMO
Valid from the 09 at 06:00 until the 09 at 15:00 UTC


090459Z 0906/0915 23003MPS CAVOK
BECMG 0908/0910 21007G12MPS



MET'MAP, your aeronautical weather chart ! - Copyright ORBIFLY December 2007 - Disclaimer

ORBIFLY MET'MAP TEAM :

Programming & Development : Alexandra Zaïnal
Concept & original design : Baudouin d'Aumeries
Assistance for programming : Marc-Olivier Méhu
Technical & hardware support : Manuel Goepfert

Contact : metmap@orbifly.com




SOURCES & CREDITS :

   NOAA